sensor_id;sensor_type;location;lat;lon;timestamp;P1;durP1;ratioP1;P2;durP2;ratioP2
18174;SDS011;9212;50.894;16.714;2023-07-16T00:00:20;4.57;;;2.70;;
18174;SDS011;9212;50.894;16.714;2023-07-16T00:02:48;3.90;;;2.58;;
18174;SDS011;9212;50.894;16.714;2023-07-16T00:05:15;3.13;;;2.42;;
18174;SDS011;9212;50.894;16.714;2023-07-16T00:07:43;4.38;;;2.60;;
18174;SDS011;9212;50.894;16.714;2023-07-16T00:10:10;5.32;;;2.80;;
18174;SDS011;9212;50.894;16.714;2023-07-16T00:12:37;3.13;;;2.30;;
18174;SDS011;9212;50.894;16.714;2023-07-16T00:15:05;4.15;;;2.58;;
18174;SDS011;9212;50.894;16.714;2023-07-16T00:17:33;6.65;;;2.83;;
18174;SDS011;9212;50.894;16.714;2023-07-16T00:20:00;3.20;;;2.45;;
18174;SDS011;9212;50.894;16.714;2023-07-16T00:22:27;6.78;;;2.78;;
18174;SDS011;9212;50.894;16.714;2023-07-16T00:24:56;6.53;;;3.03;;
18174;SDS011;9212;50.894;16.714;2023-07-16T00:27:22;5.30;;;2.72;;
18174;SDS011;9212;50.894;16.714;2023-07-16T00:29:50;4.28;;;2.92;;
18174;SDS011;9212;50.894;16.714;2023-07-16T00:32:17;8.05;;;2.72;;
18174;SDS011;9212;50.894;16.714;2023-07-16T00:34:44;3.28;;;2.72;;
18174;SDS011;9212;50.894;16.714;2023-07-16T00:37:11;3.05;;;2.58;;
18174;SDS011;9212;50.894;16.714;2023-07-16T00:39:38;5.15;;;3.10;;
18174;SDS011;9212;50.894;16.714;2023-07-16T00:42:07;6.32;;;2.65;;
18174;SDS011;9212;50.894;16.714;2023-07-16T00:44:34;4.45;;;2.85;;
18174;SDS011;9212;50.894;16.714;2023-07-16T00:47:02;4.15;;;2.65;;
18174;SDS011;9212;50.894;16.714;2023-07-16T00:49:29;17.83;;;3.38;;
18174;SDS011;9212;50.894;16.714;2023-07-16T00:51:57;6.78;;;2.88;;
18174;SDS011;9212;50.894;16.714;2023-07-16T00:54:25;2.95;;;2.42;;
18174;SDS011;9212;50.894;16.714;2023-07-16T00:56:52;3.22;;;2.80;;
18174;SDS011;9212;50.894;16.714;2023-07-16T00:59:21;3.08;;;2.47;;
18174;SDS011;9212;50.894;16.714;2023-07-16T01:01:48;8.57;;;2.50;;
18174;SDS011;9212;50.894;16.714;2023-07-16T01:04:15;6.50;;;2.85;;
18174;SDS011;9212;50.894;16.714;2023-07-16T01:06:43;5.45;;;3.10;;
18174;SDS011;9212;50.894;16.714;2023-07-16T01:09:15;5.47;;;2.95;;
18174;SDS011;9212;50.894;16.714;2023-07-16T01:11:43;4.07;;;3.03;;
18174;SDS011;9212;50.894;16.714;2023-07-16T01:14:10;4.53;;;2.80;;
18174;SDS011;9212;50.894;16.714;2023-07-16T01:16:41;3.30;;;2.83;;
18174;SDS011;9212;50.894;16.714;2023-07-16T01:19:08;7.43;;;2.67;;
18174;SDS011;9212;50.894;16.714;2023-07-16T01:21:38;3.90;;;2.78;;
18174;SDS011;9212;50.894;16.714;2023-07-16T01:27:16;6.45;;;3.28;;
18174;SDS011;9212;50.894;16.714;2023-07-16T01:29:52;5.57;;;2.72;;
18174;SDS011;9212;50.894;16.714;2023-07-16T01:32:23;4.25;;;2.72;;
18174;SDS011;9212;50.894;16.714;2023-07-16T01:34:51;5.05;;;3.10;;
18174;SDS011;9212;50.894;16.714;2023-07-16T01:37:19;10.13;;;3.00;;
18174;SDS011;9212;50.894;16.714;2023-07-16T01:39:46;5.68;;;3.85;;
18174;SDS011;9212;50.894;16.714;2023-07-16T01:42:14;3.60;;;3.08;;
18174;SDS011;9212;50.894;16.714;2023-07-16T01:44:41;3.63;;;2.83;;
18174;SDS011;9212;50.894;16.714;2023-07-16T01:47:11;3.55;;;2.63;;
18174;SDS011;9212;50.894;16.714;2023-07-16T01:49:40;5.10;;;3.10;;
18174;SDS011;9212;50.894;16.714;2023-07-16T01:52:08;6.28;;;3.70;;
18174;SDS011;9212;50.894;16.714;2023-07-16T01:54:35;7.18;;;3.42;;
18174;SDS011;9212;50.894;16.714;2023-07-16T01:57:02;3.50;;;3.17;;
18174;SDS011;9212;50.894;16.714;2023-07-16T01:59:30;9.27;;;3.55;;
18174;SDS011;9212;50.894;16.714;2023-07-16T02:01:57;5.30;;;3.42;;
18174;SDS011;9212;50.894;16.714;2023-07-16T02:04:25;3.55;;;3.20;;
18174;SDS011;9212;50.894;16.714;2023-07-16T02:06:52;4.00;;;3.33;;
18174;SDS011;9212;50.894;16.714;2023-07-16T02:09:19;4.32;;;3.42;;
18174;SDS011;9212;50.894;16.714;2023-07-16T02:11:46;4.70;;;3.47;;
18174;SDS011;9212;50.894;16.714;2023-07-16T02:14:13;6.13;;;3.30;;
18174;SDS011;9212;50.894;16.714;2023-07-16T02:16:41;4.82;;;3.03;;
18174;SDS011;9212;50.894;16.714;2023-07-16T02:19:08;6.10;;;3.42;;
18174;SDS011;9212;50.894;16.714;2023-07-16T02:21:36;7.10;;;3.65;;
18174;SDS011;9212;50.894;16.714;2023-07-16T02:24:03;6.95;;;3.40;;
18174;SDS011;9212;50.894;16.714;2023-07-16T02:26:31;5.40;;;3.63;;
18174;SDS011;9212;50.894;16.714;2023-07-16T02:28:58;5.25;;;3.10;;
18174;SDS011;9212;50.894;16.714;2023-07-16T02:31:25;7.03;;;3.83;;
18174;SDS011;9212;50.894;16.714;2023-07-16T02:33:52;8.52;;;4.00;;
18174;SDS011;9212;50.894;16.714;2023-07-16T02:36:19;4.70;;;3.60;;
18174;SDS011;9212;50.894;16.714;2023-07-16T02:38:47;3.85;;;3.42;;
18174;SDS011;9212;50.894;16.714;2023-07-16T02:41:14;6.55;;;3.65;;
18174;SDS011;9212;50.894;16.714;2023-07-16T02:43:42;3.58;;;3.25;;
18174;SDS011;9212;50.894;16.714;2023-07-16T02:46:09;3.38;;;3.08;;
18174;SDS011;9212;50.894;16.714;2023-07-16T02:48:35;7.80;;;3.42;;
18174;SDS011;9212;50.894;16.714;2023-07-16T02:51:02;4.32;;;3.15;;
18174;SDS011;9212;50.894;16.714;2023-07-16T02:53:30;5.00;;;3.63;;
18174;SDS011;9212;50.894;16.714;2023-07-16T02:55:58;4.75;;;3.45;;
18174;SDS011;9212;50.894;16.714;2023-07-16T02:58:25;7.15;;;3.38;;
18174;SDS011;9212;50.894;16.714;2023-07-16T03:00:52;8.85;;;3.72;;
18174;SDS011;9212;50.894;16.714;2023-07-16T03:03:19;4.10;;;3.67;;
18174;SDS011;9212;50.894;16.714;2023-07-16T03:05:46;4.25;;;3.50;;
18174;SDS011;9212;50.894;16.714;2023-07-16T03:08:13;8.30;;;3.60;;
18174;SDS011;9212;50.894;16.714;2023-07-16T03:10:41;5.45;;;3.53;;
18174;SDS011;9212;50.894;16.714;2023-07-16T03:13:09;7.25;;;3.70;;
18174;SDS011;9212;50.894;16.714;2023-07-16T03:15:36;5.13;;;3.30;;
18174;SDS011;9212;50.894;16.714;2023-07-16T03:18:03;5.75;;;4.03;;
18174;SDS011;9212;50.894;16.714;2023-07-16T03:20:30;5.00;;;3.90;;
18174;SDS011;9212;50.894;16.714;2023-07-16T03:22:57;12.13;;;4.05;;
18174;SDS011;9212;50.894;16.714;2023-07-16T03:25:24;6.00;;;3.70;;
18174;SDS011;9212;50.894;16.714;2023-07-16T03:27:51;7.43;;;4.53;;
18174;SDS011;9212;50.894;16.714;2023-07-16T03:30:19;9.40;;;4.35;;
18174;SDS011;9212;50.894;16.714;2023-07-16T03:32:46;10.55;;;4.03;;
18174;SDS011;9212;50.894;16.714;2023-07-16T03:35:13;12.73;;;3.63;;
18174;SDS011;9212;50.894;16.714;2023-07-16T03:37:40;4.72;;;4.13;;
18174;SDS011;9212;50.894;16.714;2023-07-16T03:40:14;11.75;;;4.15;;
18174;SDS011;9212;50.894;16.714;2023-07-16T03:42:42;10.23;;;3.63;;
18174;SDS011;9212;50.894;16.714;2023-07-16T03:45:09;7.60;;;3.90;;
18174;SDS011;9212;50.894;16.714;2023-07-16T03:47:38;5.82;;;4.03;;
18174;SDS011;9212;50.894;16.714;2023-07-16T03:50:05;6.22;;;4.10;;
18174;SDS011;9212;50.894;16.714;2023-07-16T03:52:33;7.13;;;3.80;;
18174;SDS011;9212;50.894;16.714;2023-07-16T03:55:00;6.15;;;4.45;;
18174;SDS011;9212;50.894;16.714;2023-07-16T03:57:28;8.60;;;4.10;;
18174;SDS011;9212;50.894;16.714;2023-07-16T03:59:55;11.00;;;4.53;;
18174;SDS011;9212;50.894;16.714;2023-07-16T04:02:23;4.60;;;4.10;;
18174;SDS011;9212;50.894;16.714;2023-07-16T04:04:51;7.82;;;4.28;;
18174;SDS011;9212;50.894;16.714;2023-07-16T04:07:18;6.68;;;3.60;;
18174;SDS011;9212;50.894;16.714;2023-07-16T04:09:46;8.40;;;4.03;;
18174;SDS011;9212;50.894;16.714;2023-07-16T04:12:13;7.30;;;3.60;;
18174;SDS011;9212;50.894;16.714;2023-07-16T04:14:40;5.70;;;3.13;;
18174;SDS011;9212;50.894;16.714;2023-07-16T04:17:07;7.80;;;3.30;;
18174;SDS011;9212;50.894;16.714;2023-07-16T04:19:34;7.03;;;2.85;;
18174;SDS011;9212;50.894;16.714;2023-07-16T04:22:04;7.35;;;3.20;;
18174;SDS011;9212;50.894;16.714;2023-07-16T04:24:31;6.47;;;3.15;;
18174;SDS011;9212;50.894;16.714;2023-07-16T04:26:58;6.70;;;3.22;;
18174;SDS011;9212;50.894;16.714;2023-07-16T04:29:26;3.70;;;2.83;;
18174;SDS011;9212;50.894;16.714;2023-07-16T04:31:53;3.38;;;3.05;;
18174;SDS011;9212;50.894;16.714;2023-07-16T04:34:20;5.90;;;2.85;;
18174;SDS011;9212;50.894;16.714;2023-07-16T04:36:47;3.70;;;2.50;;
18174;SDS011;9212;50.894;16.714;2023-07-16T04:39:16;11.05;;;2.70;;
18174;SDS011;9212;50.894;16.714;2023-07-16T04:41:43;3.78;;;2.67;;
18174;SDS011;9212;50.894;16.714;2023-07-16T04:44:10;5.05;;;3.00;;
18174;SDS011;9212;50.894;16.714;2023-07-16T04:46:37;4.28;;;3.10;;
18174;SDS011;9212;50.894;16.714;2023-07-16T04:49:04;4.00;;;2.97;;
18174;SDS011;9212;50.894;16.714;2023-07-16T04:51:32;5.55;;;3.55;;
18174;SDS011;9212;50.894;16.714;2023-07-16T04:53:59;7.63;;;3.58;;
18174;SDS011;9212;50.894;16.714;2023-07-16T04:56:28;7.35;;;3.17;;
18174;SDS011;9212;50.894;16.714;2023-07-16T04:58:55;4.40;;;3.08;;
18174;SDS011;9212;50.894;16.714;2023-07-16T05:01:22;9.88;;;3.20;;
18174;SDS011;9212;50.894;16.714;2023-07-16T05:03:50;3.85;;;3.00;;
18174;SDS011;9212;50.894;16.714;2023-07-16T05:06:17;5.13;;;2.20;;
18174;SDS011;9212;50.894;16.714;2023-07-16T05:08:44;2.50;;;2.20;;
18174;SDS011;9212;50.894;16.714;2023-07-16T05:11:12;2.70;;;2.20;;
18174;SDS011;9212;50.894;16.714;2023-07-16T05:13:40;4.88;;;2.28;;
18174;SDS011;9212;50.894;16.714;2023-07-16T05:16:07;5.22;;;2.38;;
18174;SDS011;9212;50.894;16.714;2023-07-16T05:18:35;4.13;;;2.03;;
18174;SDS011;9212;50.894;16.714;2023-07-16T05:21:02;2.50;;;1.88;;
18174;SDS011;9212;50.894;16.714;2023-07-16T05:23:29;2.90;;;2.50;;
18174;SDS011;9212;50.894;16.714;2023-07-16T05:25:56;4.20;;;2.38;;
18174;SDS011;9212;50.894;16.714;2023-07-16T05:28:23;4.80;;;2.40;;
18174;SDS011;9212;50.894;16.714;2023-07-16T05:30:58;2.92;;;2.08;;
18174;SDS011;9212;50.894;16.714;2023-07-16T05:33:25;4.78;;;2.10;;
18174;SDS011;9212;50.894;16.714;2023-07-16T05:35:53;1.90;;;1.80;;
18174;SDS011;9212;50.894;16.714;2023-07-16T05:38:20;3.00;;;1.83;;
18174;SDS011;9212;50.894;16.714;2023-07-16T05:40:47;5.53;;;2.00;;
18174;SDS011;9212;50.894;16.714;2023-07-16T05:43:14;2.22;;;2.00;;
18174;SDS011;9212;50.894;16.714;2023-07-16T05:45:42;4.88;;;1.88;;
18174;SDS011;9212;50.894;16.714;2023-07-16T05:48:10;2.83;;;1.58;;
18174;SDS011;9212;50.894;16.714;2023-07-16T05:50:37;2.35;;;1.77;;
18174;SDS011;9212;50.894;16.714;2023-07-16T05:53:04;2.00;;;1.80;;
18174;SDS011;9212;50.894;16.714;2023-07-16T05:55:31;2.28;;;1.60;;
18174;SDS011;9212;50.894;16.714;2023-07-16T05:57:58;2.33;;;1.98;;
18174;SDS011;9212;50.894;16.714;2023-07-16T06:00:25;1.45;;;1.33;;
18174;SDS011;9212;50.894;16.714;2023-07-16T06:02:52;4.05;;;1.85;;
18174;SDS011;9212;50.894;16.714;2023-07-16T06:05:21;2.30;;;1.40;;
18174;SDS011;9212;50.894;16.714;2023-07-16T06:07:49;6.97;;;2.15;;
18174;SDS011;9212;50.894;16.714;2023-07-16T06:10:16;2.08;;;1.98;;
18174;SDS011;9212;50.894;16.714;2023-07-16T06:12:43;2.83;;;1.92;;
18174;SDS011;9212;50.894;16.714;2023-07-16T06:15:10;2.33;;;1.40;;
18174;SDS011;9212;50.894;16.714;2023-07-16T06:17:37;1.30;;;1.20;;
18174;SDS011;9212;50.894;16.714;2023-07-16T06:20:04;2.20;;;1.30;;
18174;SDS011;9212;50.894;16.714;2023-07-16T06:22:34;1.10;;;1.10;;
18174;SDS011;9212;50.894;16.714;2023-07-16T06:25:01;1.42;;;1.25;;
18174;SDS011;9212;50.894;16.714;2023-07-16T06:27:29;1.30;;;1.20;;
18174;SDS011;9212;50.894;16.714;2023-07-16T06:29:56;1.42;;;1.10;;
18174;SDS011;9212;50.894;16.714;2023-07-16T06:32:24;2.72;;;1.15;;
18174;SDS011;9212;50.894;16.714;2023-07-16T06:34:51;2.20;;;1.30;;
18174;SDS011;9212;50.894;16.714;2023-07-16T06:37:18;1.90;;;1.30;;
18174;SDS011;9212;50.894;16.714;2023-07-16T06:39:49;1.10;;;1.10;;
18174;SDS011;9212;50.894;16.714;2023-07-16T06:42:16;1.00;;;1.00;;
18174;SDS011;9212;50.894;16.714;2023-07-16T06:44:44;1.85;;;1.48;;
18174;SDS011;9212;50.894;16.714;2023-07-16T06:47:11;2.63;;;1.40;;
18174;SDS011;9212;50.894;16.714;2023-07-16T06:49:38;1.42;;;1.33;;
18174;SDS011;9212;50.894;16.714;2023-07-16T06:52:06;3.75;;;1.60;;
18174;SDS011;9212;50.894;16.714;2023-07-16T06:54:33;1.40;;;1.40;;
18174;SDS011;9212;50.894;16.714;2023-07-16T06:57:02;2.33;;;1.90;;
18174;SDS011;9212;50.894;16.714;2023-07-16T06:59:29;3.22;;;1.90;;
18174;SDS011;9212;50.894;16.714;2023-07-16T07:01:56;4.60;;;2.08;;
18174;SDS011;9212;50.894;16.714;2023-07-16T07:04:23;2.22;;;1.70;;
18174;SDS011;9212;50.894;16.714;2023-07-16T07:06:50;3.67;;;1.88;;
18174;SDS011;9212;50.894;16.714;2023-07-16T07:09:17;2.30;;;1.63;;
18174;SDS011;9212;50.894;16.714;2023-07-16T07:11:44;2.10;;;1.85;;
18174;SDS011;9212;50.894;16.714;2023-07-16T07:14:13;2.22;;;1.75;;
18174;SDS011;9212;50.894;16.714;2023-07-16T07:16:40;1.58;;;1.48;;
18174;SDS011;9212;50.894;16.714;2023-07-16T07:19:07;1.50;;;1.40;;
18174;SDS011;9212;50.894;16.714;2023-07-16T07:21:35;1.88;;;1.50;;
18174;SDS011;9212;50.894;16.714;2023-07-16T07:24:02;2.80;;;1.73;;
18174;SDS011;9212;50.894;16.714;2023-07-16T07:26:29;2.05;;;1.05;;
18174;SDS011;9212;50.894;16.714;2023-07-16T07:28:56;4.45;;;1.50;;
18174;SDS011;9212;50.894;16.714;2023-07-16T07:31:25;2.70;;;1.45;;
18174;SDS011;9212;50.894;16.714;2023-07-16T07:33:52;1.13;;;1.13;;
18174;SDS011;9212;50.894;16.714;2023-07-16T07:36:22;1.40;;;1.30;;
18174;SDS011;9212;50.894;16.714;2023-07-16T07:38:49;1.33;;;1.20;;
18174;SDS011;9212;50.894;16.714;2023-07-16T07:41:16;1.42;;;1.10;;
18174;SDS011;9212;50.894;16.714;2023-07-16T07:43:43;1.40;;;1.30;;
18174;SDS011;9212;50.894;16.714;2023-07-16T07:46:10;3.72;;;1.60;;
18174;SDS011;9212;50.894;16.714;2023-07-16T07:48:38;1.48;;;1.33;;
18174;SDS011;9212;50.894;16.714;2023-07-16T07:51:05;1.60;;;1.50;;
18174;SDS011;9212;50.894;16.714;2023-07-16T07:53:33;1.50;;;1.40;;
18174;SDS011;9212;50.894;16.714;2023-07-16T07:56:00;3.55;;;2.55;;
18174;SDS011;9212;50.894;16.714;2023-07-16T07:58:27;1.50;;;1.40;;
18174;SDS011;9212;50.894;16.714;2023-07-16T08:00:54;1.50;;;1.40;;
18174;SDS011;9212;50.894;16.714;2023-07-16T08:03:21;1.80;;;1.23;;
18174;SDS011;9212;50.894;16.714;2023-07-16T08:05:49;1.48;;;1.27;;
18174;SDS011;9212;50.894;16.714;2023-07-16T08:08:17;2.25;;;1.45;;
18174;SDS011;9212;50.894;16.714;2023-07-16T08:10:44;1.33;;;1.30;;
18174;SDS011;9212;50.894;16.714;2023-07-16T08:13:12;1.13;;;1.13;;
18174;SDS011;9212;50.894;16.714;2023-07-16T08:15:39;1.10;;;1.10;;
18174;SDS011;9212;50.894;16.714;2023-07-16T08:18:06;1.52;;;1.30;;
18174;SDS011;9212;50.894;16.714;2023-07-16T08:20:35;2.08;;;1.75;;
18174;SDS011;9212;50.894;16.714;2023-07-16T08:23:03;1.63;;;1.40;;
18174;SDS011;9212;50.894;16.714;2023-07-16T08:25:31;1.50;;;1.38;;
18174;SDS011;9212;50.894;16.714;2023-07-16T08:27:57;2.08;;;1.40;;
18174;SDS011;9212;50.894;16.714;2023-07-16T08:30:24;1.63;;;1.52;;
18174;SDS011;9212;50.894;16.714;2023-07-16T08:32:51;1.48;;;1.38;;
18174;SDS011;9212;50.894;16.714;2023-07-16T08:35:19;1.58;;;1.48;;
18174;SDS011;9212;50.894;16.714;2023-07-16T08:37:45;2.15;;;1.60;;
18174;SDS011;9212;50.894;16.714;2023-07-16T08:40:14;2.00;;;1.60;;
18174;SDS011;9212;50.894;16.714;2023-07-16T08:42:43;1.60;;;1.50;;
18174;SDS011;9212;50.894;16.714;2023-07-16T08:45:12;1.60;;;1.50;;
18174;SDS011;9212;50.894;16.714;2023-07-16T08:47:40;2.33;;;1.80;;
18174;SDS011;9212;50.894;16.714;2023-07-16T08:50:07;2.42;;;2.00;;
18174;SDS011;9212;50.894;16.714;2023-07-16T08:52:36;1.98;;;1.80;;
18174;SDS011;9212;50.894;16.714;2023-07-16T08:55:05;2.13;;;1.88;;
18174;SDS011;9212;50.894;16.714;2023-07-16T08:57:34;3.85;;;1.80;;
18174;SDS011;9212;50.894;16.714;2023-07-16T09:00:02;2.45;;;2.05;;
18174;SDS011;9212;50.894;16.714;2023-07-16T09:02:30;1.88;;;1.77;;
18174;SDS011;9212;50.894;16.714;2023-07-16T09:04:57;4.65;;;1.80;;
18174;SDS011;9212;50.894;16.714;2023-07-16T09:07:26;2.50;;;1.95;;
18174;SDS011;9212;50.894;16.714;2023-07-16T09:09:56;2.58;;;2.20;;
18174;SDS011;9212;50.894;16.714;2023-07-16T09:12:26;7.47;;;1.85;;
18174;SDS011;9212;50.894;16.714;2023-07-16T09:14:56;2.35;;;2.13;;
18174;SDS011;9212;50.894;16.714;2023-07-16T09:17:23;2.92;;;2.40;;
18174;SDS011;9212;50.894;16.714;2023-07-16T09:19:51;2.00;;;1.85;;
18174;SDS011;9212;50.894;16.714;2023-07-16T09:22:18;2.65;;;2.15;;
18174;SDS011;9212;50.894;16.714;2023-07-16T09:24:46;2.28;;;1.77;;
18174;SDS011;9212;50.894;16.714;2023-07-16T09:27:13;2.00;;;1.90;;
18174;SDS011;9212;50.894;16.714;2023-07-16T09:29:40;2.17;;;1.83;;
18174;SDS011;9212;50.894;16.714;2023-07-16T09:32:09;4.03;;;2.00;;
18174;SDS011;9212;50.894;16.714;2023-07-16T09:34:36;2.70;;;1.92;;
18174;SDS011;9212;50.894;16.714;2023-07-16T09:37:04;3.00;;;2.25;;
18174;SDS011;9212;50.894;16.714;2023-07-16T09:39:32;2.85;;;2.30;;
18174;SDS011;9212;50.894;16.714;2023-07-16T09:41:59;2.80;;;2.25;;
18174;SDS011;9212;50.894;16.714;2023-07-16T09:44:29;2.58;;;2.03;;
18174;SDS011;9212;50.894;16.714;2023-07-16T09:46:56;6.60;;;2.20;;
18174;SDS011;9212;50.894;16.714;2023-07-16T09:49:25;2.38;;;2.17;;
18174;SDS011;9212;50.894;16.714;2023-07-16T09:51:55;3.85;;;2.50;;
18174;SDS011;9212;50.894;16.714;2023-07-16T09:54:24;2.58;;;1.80;;
18174;SDS011;9212;50.894;16.714;2023-07-16T09:56:52;3.00;;;2.25;;
18174;SDS011;9212;50.894;16.714;2023-07-16T09:59:23;2.67;;;2.42;;
18174;SDS011;9212;50.894;16.714;2023-07-16T10:01:55;3.28;;;2.35;;
18174;SDS011;9212;50.894;16.714;2023-07-16T10:04:25;2.70;;;2.40;;
18174;SDS011;9212;50.894;16.714;2023-07-16T10:07:03;2.63;;;2.42;;
18174;SDS011;9212;50.894;16.714;2023-07-16T10:09:33;2.65;;;2.30;;
18174;SDS011;9212;50.894;16.714;2023-07-16T10:12:10;2.90;;;2.50;;
18174;SDS011;9212;50.894;16.714;2023-07-16T10:14:41;2.95;;;1.98;;
18174;SDS011;9212;50.894;16.714;2023-07-16T10:17:12;3.05;;;2.20;;
18174;SDS011;9212;50.894;16.714;2023-07-16T10:19:49;2.88;;;2.67;;
18174;SDS011;9212;50.894;16.714;2023-07-16T10:22:18;2.67;;;2.47;;
18174;SDS011;9212;50.894;16.714;2023-07-16T10:24:57;3.85;;;2.40;;
18174;SDS011;9212;50.894;16.714;2023-07-16T10:27:29;3.63;;;2.53;;
18174;SDS011;9212;50.894;16.714;2023-07-16T10:29:58;2.72;;;2.45;;
18174;SDS011;9212;50.894;16.714;2023-07-16T10:32:28;6.47;;;3.35;;
18174;SDS011;9212;50.894;16.714;2023-07-16T10:34:58;2.85;;;2.55;;
18174;SDS011;9212;50.894;16.714;2023-07-16T10:37:26;4.55;;;2.20;;
18174;SDS011;9212;50.894;16.714;2023-07-16T10:39:54;3.83;;;3.05;;
18174;SDS011;9212;50.894;16.714;2023-07-16T10:42:24;3.88;;;2.78;;
18174;SDS011;9212;50.894;16.714;2023-07-16T10:44:57;4.57;;;2.90;;
18174;SDS011;9212;50.894;16.714;2023-07-16T10:47:29;4.03;;;2.40;;
18174;SDS011;9212;50.894;16.714;2023-07-16T10:49:57;3.28;;;1.50;;
18174;SDS011;9212;50.894;16.714;2023-07-16T10:52:30;2.60;;;1.40;;
18174;SDS011;9212;50.894;16.714;2023-07-16T10:54:59;1.80;;;1.40;;
18174;SDS011;9212;50.894;16.714;2023-07-16T10:57:29;5.43;;;1.33;;
18174;SDS011;9212;50.894;16.714;2023-07-16T10:59:57;3.17;;;1.40;;
18174;SDS011;9212;50.894;16.714;2023-07-16T11:02:25;1.27;;;1.20;;
18174;SDS011;9212;50.894;16.714;2023-07-16T11:04:52;1.35;;;1.25;;
18174;SDS011;9212;50.894;16.714;2023-07-16T11:07:22;1.88;;;1.73;;
18174;SDS011;9212;50.894;16.714;2023-07-16T11:09:51;1.52;;;1.40;;
18174;SDS011;9212;50.894;16.714;2023-07-16T11:12:21;3.92;;;1.10;;
18174;SDS011;9212;50.894;16.714;2023-07-16T11:14:53;3.70;;;1.30;;
18174;SDS011;9212;50.894;16.714;2023-07-16T11:17:24;1.65;;;1.48;;
18174;SDS011;9212;50.894;16.714;2023-07-16T11:19:51;4.15;;;1.60;;
18174;SDS011;9212;50.894;16.714;2023-07-16T11:22:19;3.10;;;1.15;;
18174;SDS011;9212;50.894;16.714;2023-07-16T11:24:53;3.78;;;1.30;;
18174;SDS011;9212;50.894;16.714;2023-07-16T11:27:21;1.50;;;1.40;;
18174;SDS011;9212;50.894;16.714;2023-07-16T11:29:52;2.42;;;1.25;;
18174;SDS011;9212;50.894;16.714;2023-07-16T11:32:28;1.95;;;1.30;;
18174;SDS011;9212;50.894;16.714;2023-07-16T11:34:56;1.13;;;1.10;;
18174;SDS011;9212;50.894;16.714;2023-07-16T11:37:24;1.40;;;1.30;;
18174;SDS011;9212;50.894;16.714;2023-07-16T11:39:56;3.13;;;1.23;;
18174;SDS011;9212;50.894;16.714;2023-07-16T11:42:24;2.10;;;1.52;;
18174;SDS011;9212;50.894;16.714;2023-07-16T11:44:55;2.72;;;1.33;;
18174;SDS011;9212;50.894;16.714;2023-07-16T11:47:23;1.33;;;1.20;;
18174;SDS011;9212;50.894;16.714;2023-07-16T11:49:51;1.35;;;1.25;;
18174;SDS011;9212;50.894;16.714;2023-07-16T11:52:19;2.17;;;1.27;;
18174;SDS011;9212;50.894;16.714;2023-07-16T11:54:47;1.33;;;1.23;;
18174;SDS011;9212;50.894;16.714;2023-07-16T11:57:16;1.40;;;1.30;;
18174;SDS011;9212;50.894;16.714;2023-07-16T11:59:43;1.40;;;1.30;;
18174;SDS011;9212;50.894;16.714;2023-07-16T12:02:10;1.30;;;1.27;;
18174;SDS011;9212;50.894;16.714;2023-07-16T12:04:37;1.40;;;1.30;;
18174;SDS011;9212;50.894;16.714;2023-07-16T12:07:04;1.65;;;1.02;;
18174;SDS011;9212;50.894;16.714;2023-07-16T12:09:31;1.45;;;1.35;;
18174;SDS011;9212;50.894;16.714;2023-07-16T12:11:59;1.50;;;1.40;;
18174;SDS011;9212;50.894;16.714;2023-07-16T12:14:27;1.55;;;1.40;;
18174;SDS011;9212;50.894;16.714;2023-07-16T12:16:54;1.40;;;1.17;;
18174;SDS011;9212;50.894;16.714;2023-07-16T12:19:22;1.38;;;1.27;;
18174;SDS011;9212;50.894;16.714;2023-07-16T12:21:49;1.48;;;1.33;;
18174;SDS011;9212;50.894;16.714;2023-07-16T12:24:16;1.60;;;1.50;;
18174;SDS011;9212;50.894;16.714;2023-07-16T12:26:43;3.60;;;1.52;;
18174;SDS011;9212;50.894;16.714;2023-07-16T12:29:10;1.55;;;1.45;;
18174;SDS011;9212;50.894;16.714;2023-07-16T12:31:38;2.00;;;1.23;;
18174;SDS011;9212;50.894;16.714;2023-07-16T12:34:05;3.90;;;1.33;;
18174;SDS011;9212;50.894;16.714;2023-07-16T12:36:32;3.70;;;1.60;;
18174;SDS011;9212;50.894;16.714;2023-07-16T12:38:59;1.42;;;1.33;;
18174;SDS011;9212;50.894;16.714;2023-07-16T12:41:26;1.50;;;1.40;;
18174;SDS011;9212;50.894;16.714;2023-07-16T12:43:53;3.78;;;1.40;;
18174;SDS011;9212;50.894;16.714;2023-07-16T12:46:20;1.83;;;1.63;;
18174;SDS011;9212;50.894;16.714;2023-07-16T12:48:49;2.55;;;1.67;;
18174;SDS011;9212;50.894;16.714;2023-07-16T12:51:16;1.65;;;1.58;;
18174;SDS011;9212;50.894;16.714;2023-07-16T12:53:43;2.33;;;1.40;;
18174;SDS011;9212;50.894;16.714;2023-07-16T12:56:10;3.05;;;1.55;;
18174;SDS011;9212;50.894;16.714;2023-07-16T12:58:37;1.52;;;1.40;;
18174;SDS011;9212;50.894;16.714;2023-07-16T13:01:04;5.88;;;1.45;;
18174;SDS011;9212;50.894;16.714;2023-07-16T13:03:31;1.60;;;1.50;;
18174;SDS011;9212;50.894;16.714;2023-07-16T13:05:59;2.60;;;1.40;;
18174;SDS011;9212;50.894;16.714;2023-07-16T13:08:28;1.58;;;1.48;;
18174;SDS011;9212;50.894;16.714;2023-07-16T13:10:55;1.48;;;1.38;;
18174;SDS011;9212;50.894;16.714;2023-07-16T13:13:22;1.35;;;1.25;;
18174;SDS011;9212;50.894;16.714;2023-07-16T13:15:49;1.70;;;1.60;;
18174;SDS011;9212;50.894;16.714;2023-07-16T13:18:16;1.58;;;1.48;;
18174;SDS011;9212;50.894;16.714;2023-07-16T13:20:43;2.47;;;1.40;;
18174;SDS011;9212;50.894;16.714;2023-07-16T13:23:12;1.80;;;1.30;;
18174;SDS011;9212;50.894;16.714;2023-07-16T13:25:39;1.67;;;1.50;;
18174;SDS011;9212;50.894;16.714;2023-07-16T13:28:06;1.52;;;1.42;;
18174;SDS011;9212;50.894;16.714;2023-07-16T13:30:33;3.50;;;1.73;;
18174;SDS011;9212;50.894;16.714;2023-07-16T13:33:00;2.42;;;1.30;;
18174;SDS011;9212;50.894;16.714;2023-07-16T13:35:27;2.22;;;1.85;;
18174;SDS011;9212;50.894;16.714;2023-07-16T13:37:54;2.83;;;1.63;;
18174;SDS011;9212;50.894;16.714;2023-07-16T13:40:23;2.75;;;1.75;;
18174;SDS011;9212;50.894;16.714;2023-07-16T13:42:49;2.97;;;1.70;;
18174;SDS011;9212;50.894;16.714;2023-07-16T13:45:18;1.70;;;1.60;;
18174;SDS011;9212;50.894;16.714;2023-07-16T13:47:45;1.60;;;1.50;;
18174;SDS011;9212;50.894;16.714;2023-07-16T13:50:12;1.73;;;1.55;;
18174;SDS011;9212;50.894;16.714;2023-07-16T13:52:39;2.17;;;1.48;;
18174;SDS011;9212;50.894;16.714;2023-07-16T13:55:07;1.85;;;1.75;;
18174;SDS011;9212;50.894;16.714;2023-07-16T13:57:35;5.28;;;1.70;;
18174;SDS011;9212;50.894;16.714;2023-07-16T14:00:03;2.03;;;1.80;;
18174;SDS011;9212;50.894;16.714;2023-07-16T14:02:30;1.52;;;1.42;;
18174;SDS011;9212;50.894;16.714;2023-07-16T14:04:58;1.63;;;1.52;;
18174;SDS011;9212;50.894;16.714;2023-07-16T14:07:24;1.50;;;1.38;;
18174;SDS011;9212;50.894;16.714;2023-07-16T14:09:52;1.65;;;1.48;;
18174;SDS011;9212;50.894;16.714;2023-07-16T14:12:19;2.95;;;1.58;;
18174;SDS011;9212;50.894;16.714;2023-07-16T14:14:47;1.50;;;1.40;;
18174;SDS011;9212;50.894;16.714;2023-07-16T14:17:14;1.70;;;1.60;;
18174;SDS011;9212;50.894;16.714;2023-07-16T14:19:41;1.58;;;1.48;;
18174;SDS011;9212;50.894;16.714;2023-07-16T14:22:08;1.60;;;1.50;;
18174;SDS011;9212;50.894;16.714;2023-07-16T14:24:36;5.25;;;1.90;;
18174;SDS011;9212;50.894;16.714;2023-07-16T14:27:05;1.50;;;1.38;;
18174;SDS011;9212;50.894;16.714;2023-07-16T14:29:33;2.03;;;1.45;;
18174;SDS011;9212;50.894;16.714;2023-07-16T14:32:01;1.75;;;1.65;;
18174;SDS011;9212;50.894;16.714;2023-07-16T14:34:29;1.98;;;1.65;;
18174;SDS011;9212;50.894;16.714;2023-07-16T14:36:56;4.00;;;1.83;;
18174;SDS011;9212;50.894;16.714;2023-07-16T14:39:23;3.28;;;1.90;;
18174;SDS011;9212;50.894;16.714;2023-07-16T14:41:50;2.00;;;1.80;;
18174;SDS011;9212;50.894;16.714;2023-07-16T14:44:17;1.83;;;1.70;;
18174;SDS011;9212;50.894;16.714;2023-07-16T14:46:44;1.90;;;1.67;;
18174;SDS011;9212;50.894;16.714;2023-07-16T14:49:12;1.83;;;1.73;;
18174;SDS011;9212;50.894;16.714;2023-07-16T14:51:39;1.75;;;1.55;;
18174;SDS011;9212;50.894;16.714;2023-07-16T14:54:06;1.70;;;1.60;;